Terminal Aerodrome Forecast
Issued by NWS Wilmington, OH

Current Version | Previous Version | Graphics & Text | Print | Product List | Glossary On
Versions: 1 2 3 4 5 6 7 8 9 10 11 12 13 14 15 16
606
FTUS41 KILN 122332
TAFCMH
TAF
KCMH 122332Z 1300/1324 28012G22KT 3SM -SHSN OVC022
      TEMPO 1300/1301 29014G30KT 1/2SM SHSN
     FM130200 32014G24KT P6SM -SHSN BKN020
     FM130600 34014G22KT P6SM -SHSN BKN020
     FM131000 34010KT P6SM VCSH SCT020 BKN035
     FM131700 32010KT P6SM VCSH BKN025=

USA.gov is the U.S. government's official web portal to all federal, state and local government web resources and services.